sensor_id;sensor_type;location;lat;lon;timestamp;temperature;humidity
3408;DHT22;1717;50.240;8.406;2023-12-20T00:00:34;6.10;99.90
3408;DHT22;1717;50.240;8.406;2023-12-20T00:03:03;6.10;99.90
3408;DHT22;1717;50.240;8.406;2023-12-20T00:05:29;6.10;99.90
3408;DHT22;1717;50.240;8.406;2023-12-20T00:07:58;6.20;99.90
3408;DHT22;1717;50.240;8.406;2023-12-20T00:10:25;6.10;99.90
3408;DHT22;1717;50.240;8.406;2023-12-20T00:12:52;6.10;99.90
3408;DHT22;1717;50.240;8.406;2023-12-20T00:15:19;6.00;99.90
3408;DHT22;1717;50.240;8.406;2023-12-20T00:17:46;6.10;99.90
3408;DHT22;1717;50.240;8.406;2023-12-20T00:20:13;6.10;99.90
3408;DHT22;1717;50.240;8.406;2023-12-20T00:22:39;6.10;99.90
3408;DHT22;1717;50.240;8.406;2023-12-20T00:25:08;6.10;99.90
3408;DHT22;1717;50.240;8.406;2023-12-20T00:27:35;6.10;99.90
3408;DHT22;1717;50.240;8.406;2023-12-20T00:30:02;6.10;99.90
3408;DHT22;1717;50.240;8.406;2023-12-20T00:32:29;6.10;99.90
3408;DHT22;1717;50.240;8.406;2023-12-20T00:34:55;6.20;99.90
3408;DHT22;1717;50.240;8.406;2023-12-20T00:37:22;6.20;99.90
3408;DHT22;1717;50.240;8.406;2023-12-20T00:39:49;6.20;99.90
3408;DHT22;1717;50.240;8.406;2023-12-20T00:42:17;6.10;99.90
3408;DHT22;1717;50.240;8.406;2023-12-20T00:44:44;6.10;99.90
3408;DHT22;1717;50.240;8.406;2023-12-20T00:47:11;6.10;99.90
3408;DHT22;1717;50.240;8.406;2023-12-20T00:49:38;6.10;99.90
3408;DHT22;1717;50.240;8.406;2023-12-20T00:52:05;6.20;99.90
3408;DHT22;1717;50.240;8.406;2023-12-20T00:54:32;6.20;99.90
3408;DHT22;1717;50.240;8.406;2023-12-20T00:56:59;6.20;99.90
3408;DHT22;1717;50.240;8.406;2023-12-20T00:59:27;6.10;99.90
3408;DHT22;1717;50.240;8.406;2023-12-20T01:01:54;6.10;99.90
3408;DHT22;1717;50.240;8.406;2023-12-20T01:04:21;6.20;99.90
3408;DHT22;1717;50.240;8.406;2023-12-20T01:06:48;6.20;99.90
3408;DHT22;1717;50.240;8.406;2023-12-20T01:09:14;6.20;99.90
3408;DHT22;1717;50.240;8.406;2023-12-20T01:11:41;6.20;99.90
3408;DHT22;1717;50.240;8.406;2023-12-20T01:14:08;6.20;99.90
3408;DHT22;1717;50.240;8.406;2023-12-20T01:16:36;6.10;99.90
3408;DHT22;1717;50.240;8.406;2023-12-20T01:19:03;6.20;99.90
3408;DHT22;1717;50.240;8.406;2023-12-20T01:21:30;6.10;99.90
3408;DHT22;1717;50.240;8.406;2023-12-20T01:23:57;6.10;99.90
3408;DHT22;1717;50.240;8.406;2023-12-20T01:26:23;6.20;99.90
3408;DHT22;1717;50.240;8.406;2023-12-20T01:28:50;6.10;99.90
3408;DHT22;1717;50.240;8.406;2023-12-20T01:31:17;6.20;99.90
3408;DHT22;1717;50.240;8.406;2023-12-20T01:33:45;6.20;99.90
3408;DHT22;1717;50.240;8.406;2023-12-20T01:36:12;6.30;99.90
3408;DHT22;1717;50.240;8.406;2023-12-20T01:38:39;6.30;99.90
3408;DHT22;1717;50.240;8.406;2023-12-20T01:41:06;6.30;99.90
3408;DHT22;1717;50.240;8.406;2023-12-20T01:43:33;6.30;99.90
3408;DHT22;1717;50.240;8.406;2023-12-20T01:46:00;6.30;99.90
3408;DHT22;1717;50.240;8.406;2023-12-20T01:48:29;6.30;99.90
3408;DHT22;1717;50.240;8.406;2023-12-20T01:50:59;6.30;99.90
3408;DHT22;1717;50.240;8.406;2023-12-20T01:53:27;6.20;99.90
3408;DHT22;1717;50.240;8.406;2023-12-20T01:55:55;6.30;99.90
3408;DHT22;1717;50.240;8.406;2023-12-20T01:58:23;6.20;99.90
3408;DHT22;1717;50.240;8.406;2023-12-20T02:00:50;6.10;99.90
3408;DHT22;1717;50.240;8.406;2023-12-20T02:03:18;6.10;99.90
3408;DHT22;1717;50.240;8.406;2023-12-20T02:05:45;6.10;99.90
3408;DHT22;1717;50.240;8.406;2023-12-20T02:08:14;6.20;99.90
3408;DHT22;1717;50.240;8.406;2023-12-20T02:10:41;6.20;99.90
3408;DHT22;1717;50.240;8.406;2023-12-20T02:13:08;6.20;99.90
3408;DHT22;1717;50.240;8.406;2023-12-20T02:15:35;6.20;99.90
3408;DHT22;1717;50.240;8.406;2023-12-20T02:18:03;6.30;99.90
3408;DHT22;1717;50.240;8.406;2023-12-20T02:20:30;6.30;99.90
3408;DHT22;1717;50.240;8.406;2023-12-20T02:22:58;6.40;99.90
3408;DHT22;1717;50.240;8.406;2023-12-20T02:25:25;6.40;99.90
3408;DHT22;1717;50.240;8.406;2023-12-20T02:27:52;6.40;99.90
3408;DHT22;1717;50.240;8.406;2023-12-20T02:30:20;6.50;99.90
3408;DHT22;1717;50.240;8.406;2023-12-20T02:32:47;6.50;99.90
3408;DHT22;1717;50.240;8.406;2023-12-20T02:35:14;6.50;99.90
3408;DHT22;1717;50.240;8.406;2023-12-20T02:37:41;6.50;99.90
3408;DHT22;1717;50.240;8.406;2023-12-20T02:40:10;6.40;99.90
3408;DHT22;1717;50.240;8.406;2023-12-20T02:42:37;6.40;99.90
3408;DHT22;1717;50.240;8.406;2023-12-20T02:45:04;6.40;99.90
3408;DHT22;1717;50.240;8.406;2023-12-20T02:47:31;6.50;99.90
3408;DHT22;1717;50.240;8.406;2023-12-20T02:49:58;6.50;99.90
3408;DHT22;1717;50.240;8.406;2023-12-20T02:52:25;6.40;99.90
3408;DHT22;1717;50.240;8.406;2023-12-20T02:54:52;6.40;99.90
3408;DHT22;1717;50.240;8.406;2023-12-20T02:57:20;6.40;99.90
3408;DHT22;1717;50.240;8.406;2023-12-20T02:59:47;6.30;99.90
3408;DHT22;1717;50.240;8.406;2023-12-20T03:02:14;6.40;99.90
3408;DHT22;1717;50.240;8.406;2023-12-20T03:04:41;6.40;99.90
3408;DHT22;1717;50.240;8.406;2023-12-20T03:07:07;6.40;99.90
3408;DHT22;1717;50.240;8.406;2023-12-20T03:09:34;6.30;99.90
3408;DHT22;1717;50.240;8.406;2023-12-20T03:12:01;6.40;99.90
3408;DHT22;1717;50.240;8.406;2023-12-20T03:14:29;6.40;99.90
3408;DHT22;1717;50.240;8.406;2023-12-20T03:16:56;6.40;99.90
3408;DHT22;1717;50.240;8.406;2023-12-20T03:19:22;6.50;99.90
3408;DHT22;1717;50.240;8.406;2023-12-20T03:21:50;6.40;99.90
3408;DHT22;1717;50.240;8.406;2023-12-20T03:24:18;6.40;99.90
3408;DHT22;1717;50.240;8.406;2023-12-20T03:26:45;6.30;99.90
3408;DHT22;1717;50.240;8.406;2023-12-20T03:29:12;6.30;99.90
3408;DHT22;1717;50.240;8.406;2023-12-20T03:31:40;6.30;99.90
3408;DHT22;1717;50.240;8.406;2023-12-20T03:34:07;6.20;99.90
3408;DHT22;1717;50.240;8.406;2023-12-20T03:36:33;6.30;99.90
3408;DHT22;1717;50.240;8.406;2023-12-20T03:39:00;6.10;99.90
3408;DHT22;1717;50.240;8.406;2023-12-20T03:41:27;6.10;99.90
3408;DHT22;1717;50.240;8.406;2023-12-20T03:43:54;6.10;99.90
3408;DHT22;1717;50.240;8.406;2023-12-20T03:46:22;6.10;99.90
3408;DHT22;1717;50.240;8.406;2023-12-20T03:48:50;6.10;99.90
3408;DHT22;1717;50.240;8.406;2023-12-20T03:51:17;6.10;99.90
3408;DHT22;1717;50.240;8.406;2023-12-20T03:53:44;6.00;99.90
3408;DHT22;1717;50.240;8.406;2023-12-20T03:56:11;6.00;99.90
3408;DHT22;1717;50.240;8.406;2023-12-20T03:58:37;6.10;99.90
3408;DHT22;1717;50.240;8.406;2023-12-20T04:01:09;6.10;99.90
3408;DHT22;1717;50.240;8.406;2023-12-20T04:03:37;6.20;99.90
3408;DHT22;1717;50.240;8.406;2023-12-20T04:06:05;6.10;99.90
3408;DHT22;1717;50.240;8.406;2023-12-20T04:08:32;6.10;99.90
3408;DHT22;1717;50.240;8.406;2023-12-20T04:10:59;6.10;99.90
3408;DHT22;1717;50.240;8.406;2023-12-20T04:13:26;6.10;99.90
3408;DHT22;1717;50.240;8.406;2023-12-20T04:15:52;6.10;99.90
3408;DHT22;1717;50.240;8.406;2023-12-20T04:18:19;6.00;99.90
3408;DHT22;1717;50.240;8.406;2023-12-20T04:20:46;6.10;99.90
3408;DHT22;1717;50.240;8.406;2023-12-20T04:23:14;6.00;99.90
3408;DHT22;1717;50.240;8.406;2023-12-20T04:25:41;6.00;99.90
3408;DHT22;1717;50.240;8.406;2023-12-20T04:28:07;5.90;99.90
3408;DHT22;1717;50.240;8.406;2023-12-20T04:30:34;6.00;99.90
3408;DHT22;1717;50.240;8.406;2023-12-20T04:33:01;5.90;99.90
3408;DHT22;1717;50.240;8.406;2023-12-20T04:35:28;6.00;99.90
3408;DHT22;1717;50.240;8.406;2023-12-20T04:37:55;5.80;99.90
3408;DHT22;1717;50.240;8.406;2023-12-20T04:40:23;5.80;99.90
3408;DHT22;1717;50.240;8.406;2023-12-20T04:42:50;5.80;99.90
3408;DHT22;1717;50.240;8.406;2023-12-20T04:45:17;5.60;99.90
3408;DHT22;1717;50.240;8.406;2023-12-20T04:47:45;5.60;99.90
3408;DHT22;1717;50.240;8.406;2023-12-20T04:50:12;5.60;99.90
3408;DHT22;1717;50.240;8.406;2023-12-20T04:52:40;5.50;99.90
3408;DHT22;1717;50.240;8.406;2023-12-20T04:55:07;5.40;99.90
3408;DHT22;1717;50.240;8.406;2023-12-20T04:57:35;5.40;99.90
3408;DHT22;1717;50.240;8.406;2023-12-20T05:00:02;5.30;99.90
3408;DHT22;1717;50.240;8.406;2023-12-20T05:02:30;5.30;99.90
3408;DHT22;1717;50.240;8.406;2023-12-20T05:04:56;5.30;99.90
3408;DHT22;1717;50.240;8.406;2023-12-20T05:07:23;5.20;99.90
3408;DHT22;1717;50.240;8.406;2023-12-20T05:09:50;5.20;99.90
3408;DHT22;1717;50.240;8.406;2023-12-20T05:12:17;5.30;99.90
3408;DHT22;1717;50.240;8.406;2023-12-20T05:14:46;5.10;99.90
3408;DHT22;1717;50.240;8.406;2023-12-20T05:17:13;5.10;99.90
3408;DHT22;1717;50.240;8.406;2023-12-20T05:19:40;5.10;99.90
3408;DHT22;1717;50.240;8.406;2023-12-20T05:22:06;5.20;99.90
3408;DHT22;1717;50.240;8.406;2023-12-20T05:24:33;5.10;99.90
3408;DHT22;1717;50.240;8.406;2023-12-20T05:27:00;5.10;99.90
3408;DHT22;1717;50.240;8.406;2023-12-20T05:29:27;5.10;99.90
3408;DHT22;1717;50.240;8.406;2023-12-20T05:31:55;5.10;99.90
3408;DHT22;1717;50.240;8.406;2023-12-20T05:34:22;5.20;99.90
3408;DHT22;1717;50.240;8.406;2023-12-20T05:36:48;5.30;99.90
3408;DHT22;1717;50.240;8.406;2023-12-20T05:39:15;5.30;99.90
3408;DHT22;1717;50.240;8.406;2023-12-20T05:41:42;5.30;99.90
3408;DHT22;1717;50.240;8.406;2023-12-20T05:44:09;5.30;99.90
3408;DHT22;1717;50.240;8.406;2023-12-20T05:46:36;5.20;99.90
3408;DHT22;1717;50.240;8.406;2023-12-20T05:49:04;5.10;99.90
3408;DHT22;1717;50.240;8.406;2023-12-20T05:51:31;5.20;99.90
3408;DHT22;1717;50.240;8.406;2023-12-20T05:53:58;5.20;99.90
3408;DHT22;1717;50.240;8.406;2023-12-20T05:56:24;5.10;99.90
3408;DHT22;1717;50.240;8.406;2023-12-20T05:58:51;5.20;99.90
3408;DHT22;1717;50.240;8.406;2023-12-20T06:01:18;5.10;99.90
3408;DHT22;1717;50.240;8.406;2023-12-20T06:03:45;5.20;99.90
3408;DHT22;1717;50.240;8.406;2023-12-20T06:06:13;5.20;99.90
3408;DHT22;1717;50.240;8.406;2023-12-20T06:08:41;5.20;99.90
3408;DHT22;1717;50.240;8.406;2023-12-20T06:11:09;5.30;99.90
3408;DHT22;1717;50.240;8.406;2023-12-20T06:13:35;5.30;99.90
3408;DHT22;1717;50.240;8.406;2023-12-20T06:16:04;5.30;99.90
3408;DHT22;1717;50.240;8.406;2023-12-20T06:18:31;5.20;99.90
3408;DHT22;1717;50.240;8.406;2023-12-20T06:20:58;5.20;99.90
3408;DHT22;1717;50.240;8.406;2023-12-20T06:23:26;5.20;99.90
3408;DHT22;1717;50.240;8.406;2023-12-20T06:25:53;5.20;99.90
3408;DHT22;1717;50.240;8.406;2023-12-20T06:28:20;5.20;99.90
3408;DHT22;1717;50.240;8.406;2023-12-20T06:30:47;5.20;99.90
3408;DHT22;1717;50.240;8.406;2023-12-20T06:33:15;5.20;99.90
3408;DHT22;1717;50.240;8.406;2023-12-20T06:35:44;5.30;99.90
3408;DHT22;1717;50.240;8.406;2023-12-20T06:38:11;5.20;99.90
3408;DHT22;1717;50.240;8.406;2023-12-20T06:40:39;5.20;99.90
3408;DHT22;1717;50.240;8.406;2023-12-20T06:43:06;5.20;99.90
3408;DHT22;1717;50.240;8.406;2023-12-20T06:45:32;5.20;99.90
3408;DHT22;1717;50.240;8.406;2023-12-20T06:48:00;5.30;99.90
3408;DHT22;1717;50.240;8.406;2023-12-20T06:50:26;5.20;99.90
3408;DHT22;1717;50.240;8.406;2023-12-20T06:52:54;5.20;99.90
3408;DHT22;1717;50.240;8.406;2023-12-20T06:55:20;5.30;99.90
3408;DHT22;1717;50.240;8.406;2023-12-20T06:57:49;5.30;99.90
3408;DHT22;1717;50.240;8.406;2023-12-20T07:00:16;5.30;99.90
3408;DHT22;1717;50.240;8.406;2023-12-20T07:02:45;5.30;99.90
3408;DHT22;1717;50.240;8.406;2023-12-20T07:05:15;5.30;99.90
3408;DHT22;1717;50.240;8.406;2023-12-20T07:07:42;5.30;99.90
3408;DHT22;1717;50.240;8.406;2023-12-20T07:10:09;5.20;99.90
3408;DHT22;1717;50.240;8.406;2023-12-20T07:12:36;5.30;99.90
3408;DHT22;1717;50.240;8.406;2023-12-20T07:15:05;5.30;99.90
3408;DHT22;1717;50.240;8.406;2023-12-20T07:17:33;5.30;99.90
3408;DHT22;1717;50.240;8.406;2023-12-20T07:20:00;5.30;99.90
3408;DHT22;1717;50.240;8.406;2023-12-20T07:22:29;5.30;99.90
3408;DHT22;1717;50.240;8.406;2023-12-20T07:24:57;5.30;99.90
3408;DHT22;1717;50.240;8.406;2023-12-20T07:27:23;5.30;99.90
3408;DHT22;1717;50.240;8.406;2023-12-20T07:29:51;5.40;99.90
3408;DHT22;1717;50.240;8.406;2023-12-20T07:32:19;5.40;99.90
3408;DHT22;1717;50.240;8.406;2023-12-20T07:34:46;5.40;99.90
3408;DHT22;1717;50.240;8.406;2023-12-20T07:37:13;5.40;99.90
3408;DHT22;1717;50.240;8.406;2023-12-20T07:39:40;5.50;99.90
3408;DHT22;1717;50.240;8.406;2023-12-20T07:42:07;5.40;99.90
3408;DHT22;1717;50.240;8.406;2023-12-20T07:44:34;5.50;99.90
3408;DHT22;1717;50.240;8.406;2023-12-20T07:47:02;5.40;99.90
3408;DHT22;1717;50.240;8.406;2023-12-20T07:49:30;5.50;99.90
3408;DHT22;1717;50.240;8.406;2023-12-20T07:51:57;5.50;99.90
3408;DHT22;1717;50.240;8.406;2023-12-20T07:54:24;5.40;99.90
3408;DHT22;1717;50.240;8.406;2023-12-20T07:56:51;5.40;99.90
3408;DHT22;1717;50.240;8.406;2023-12-20T07:59:18;5.30;99.90
3408;DHT22;1717;50.240;8.406;2023-12-20T08:01:44;5.30;99.90
3408;DHT22;1717;50.240;8.406;2023-12-20T08:04:11;5.30;99.90
3408;DHT22;1717;50.240;8.406;2023-12-20T08:06:40;5.30;99.90
3408;DHT22;1717;50.240;8.406;2023-12-20T08:09:06;5.20;99.90
3408;DHT22;1717;50.240;8.406;2023-12-20T08:11:33;5.20;99.90
3408;DHT22;1717;50.240;8.406;2023-12-20T08:14:00;5.30;99.90
3408;DHT22;1717;50.240;8.406;2023-12-20T08:16:27;5.20;99.90
3408;DHT22;1717;50.240;8.406;2023-12-20T08:18:54;5.30;99.90
3408;DHT22;1717;50.240;8.406;2023-12-20T08:21:20;5.20;99.90
3408;DHT22;1717;50.240;8.406;2023-12-20T08:23:49;5.20;99.90
3408;DHT22;1717;50.240;8.406;2023-12-20T08:26:19;5.20;99.90
3408;DHT22;1717;50.240;8.406;2023-12-20T08:28:48;5.20;99.90
3408;DHT22;1717;50.240;8.406;2023-12-20T08:31:15;5.20;99.90
3408;DHT22;1717;50.240;8.406;2023-12-20T08:33:44;5.20;99.90
3408;DHT22;1717;50.240;8.406;2023-12-20T08:36:11;5.20;99.90
3408;DHT22;1717;50.240;8.406;2023-12-20T08:38:37;5.40;99.90
3408;DHT22;1717;50.240;8.406;2023-12-20T08:41:06;5.40;99.90
3408;DHT22;1717;50.240;8.406;2023-12-20T08:43:34;5.40;99.90
3408;DHT22;1717;50.240;8.406;2023-12-20T08:46:01;5.40;99.90
3408;DHT22;1717;50.240;8.406;2023-12-20T08:48:28;5.50;99.90
3408;DHT22;1717;50.240;8.406;2023-12-20T08:50:54;5.50;99.90
3408;DHT22;1717;50.240;8.406;2023-12-20T08:53:21;5.40;99.90
3408;DHT22;1717;50.240;8.406;2023-12-20T08:55:48;5.40;99.90
3408;DHT22;1717;50.240;8.406;2023-12-20T08:58:16;5.40;99.90
3408;DHT22;1717;50.240;8.406;2023-12-20T09:00:43;5.50;99.90
3408;DHT22;1717;50.240;8.406;2023-12-20T09:03:10;5.50;99.90
3408;DHT22;1717;50.240;8.406;2023-12-20T09:05:37;5.40;99.90
3408;DHT22;1717;50.240;8.406;2023-12-20T09:08:04;5.50;99.90
3408;DHT22;1717;50.240;8.406;2023-12-20T09:10:33;5.50;99.90
3408;DHT22;1717;50.240;8.406;2023-12-20T09:13:00;5.50;99.90
3408;DHT22;1717;50.240;8.406;2023-12-20T09:15:29;5.50;99.90
3408;DHT22;1717;50.240;8.406;2023-12-20T09:17:56;5.50;99.90
3408;DHT22;1717;50.240;8.406;2023-12-20T09:20:23;5.50;99.90
3408;DHT22;1717;50.240;8.406;2023-12-20T09:22:50;5.50;99.90
3408;DHT22;1717;50.240;8.406;2023-12-20T09:25:16;5.50;99.90
3408;DHT22;1717;50.240;8.406;2023-12-20T09:27:43;5.50;99.90
3408;DHT22;1717;50.240;8.406;2023-12-20T09:30:11;5.70;99.90
3408;DHT22;1717;50.240;8.406;2023-12-20T09:32:40;5.80;99.90
3408;DHT22;1717;50.240;8.406;2023-12-20T09:35:07;5.80;99.90
3408;DHT22;1717;50.240;8.406;2023-12-20T09:37:34;5.80;99.90
3408;DHT22;1717;50.240;8.406;2023-12-20T09:40:02;5.80;99.90
3408;DHT22;1717;50.240;8.406;2023-12-20T09:42:37;5.90;99.90
3408;DHT22;1717;50.240;8.406;2023-12-20T09:45:08;5.80;99.90
3408;DHT22;1717;50.240;8.406;2023-12-20T09:47:36;5.80;99.90
3408;DHT22;1717;50.240;8.406;2023-12-20T09:50:05;5.80;99.90
3408;DHT22;1717;50.240;8.406;2023-12-20T09:52:33;5.70;99.90
3408;DHT22;1717;50.240;8.406;2023-12-20T09:55:01;5.80;99.90
3408;DHT22;1717;50.240;8.406;2023-12-20T09:57:31;5.80;99.90
3408;DHT22;1717;50.240;8.406;2023-12-20T09:59:58;5.80;99.90
3408;DHT22;1717;50.240;8.406;2023-12-20T10:02:25;5.70;99.90
3408;DHT22;1717;50.240;8.406;2023-12-20T10:04:54;5.70;99.90
3408;DHT22;1717;50.240;8.406;2023-12-20T10:07:22;5.70;99.90
3408;DHT22;1717;50.240;8.406;2023-12-20T10:09:51;5.70;99.90
3408;DHT22;1717;50.240;8.406;2023-12-20T10:12:20;5.70;99.90
3408;DHT22;1717;50.240;8.406;2023-12-20T10:14:47;5.70;99.90
3408;DHT22;1717;50.240;8.406;2023-12-20T10:17:14;5.70;99.90
3408;DHT22;1717;50.240;8.406;2023-12-20T10:19:43;5.70;99.90
3408;DHT22;1717;50.240;8.406;2023-12-20T10:22:10;5.80;99.90
3408;DHT22;1717;50.240;8.406;2023-12-20T10:24:40;5.80;99.90
3408;DHT22;1717;50.240;8.406;2023-12-20T10:27:08;5.80;99.90
3408;DHT22;1717;50.240;8.406;2023-12-20T10:29:36;5.80;99.90
3408;DHT22;1717;50.240;8.406;2023-12-20T10:32:21;5.90;99.90
3408;DHT22;1717;50.240;8.406;2023-12-20T10:34:49;6.00;99.90
3408;DHT22;1717;50.240;8.406;2023-12-20T10:37:16;6.00;99.90
3408;DHT22;1717;50.240;8.406;2023-12-20T10:39:49;6.10;99.90
3408;DHT22;1717;50.240;8.406;2023-12-20T10:42:17;6.20;99.90
3408;DHT22;1717;50.240;8.406;2023-12-20T10:44:44;6.30;99.90
3408;DHT22;1717;50.240;8.406;2023-12-20T10:47:11;6.30;99.90
3408;DHT22;1717;50.240;8.406;2023-12-20T10:49:40;6.40;99.90
3408;DHT22;1717;50.240;8.406;2023-12-20T10:52:09;6.20;99.90
3408;DHT22;1717;50.240;8.406;2023-12-20T10:54:38;6.10;99.90
3408;DHT22;1717;50.240;8.406;2023-12-20T10:57:07;6.10;99.90
3408;DHT22;1717;50.240;8.406;2023-12-20T10:59:36;6.30;99.90
3408;DHT22;1717;50.240;8.406;2023-12-20T11:02:04;6.30;99.90
3408;DHT22;1717;50.240;8.406;2023-12-20T11:04:39;6.30;99.90
3408;DHT22;1717;50.240;8.406;2023-12-20T11:07:17;6.30;99.90
3408;DHT22;1717;50.240;8.406;2023-12-20T11:09:52;6.40;99.90
3408;DHT22;1717;50.240;8.406;2023-12-20T11:12:26;6.30;99.90
3408;DHT22;1717;50.240;8.406;2023-12-20T11:14:56;6.40;99.90
3408;DHT22;1717;50.240;8.406;2023-12-20T11:17:27;6.40;99.90
3408;DHT22;1717;50.240;8.406;2023-12-20T11:20:10;6.40;99.90
3408;DHT22;1717;50.240;8.406;2023-12-20T11:22:38;6.30;99.90
3408;DHT22;1717;50.240;8.406;2023-12-20T11:25:08;6.40;99.90
3408;DHT22;1717;50.240;8.406;2023-12-20T11:27:40;6.60;99.90
3408;DHT22;1717;50.240;8.406;2023-12-20T11:30:09;6.50;99.90
3408;DHT22;1717;50.240;8.406;2023-12-20T11:32:36;6.50;99.90
3408;DHT22;1717;50.240;8.406;2023-12-20T11:35:18;6.50;99.90
3408;DHT22;1717;50.240;8.406;2023-12-20T11:37:45;6.50;99.90
3408;DHT22;1717;50.240;8.406;2023-12-20T11:40:15;6.40;99.90
3408;DHT22;1717;50.240;8.406;2023-12-20T11:42:44;6.50;99.90
3408;DHT22;1717;50.240;8.406;2023-12-20T11:45:13;6.50;99.90
3408;DHT22;1717;50.240;8.406;2023-12-20T11:47:42;6.40;99.90
3408;DHT22;1717;50.240;8.406;2023-12-20T11:50:09;6.30;99.90
3408;DHT22;1717;50.240;8.406;2023-12-20T11:52:36;6.30;99.90
3408;DHT22;1717;50.240;8.406;2023-12-20T11:55:04;6.30;99.90
3408;DHT22;1717;50.240;8.406;2023-12-20T11:57:31;6.30;99.90
3408;DHT22;1717;50.240;8.406;2023-12-20T11:59:59;6.40;99.90
3408;DHT22;1717;50.240;8.406;2023-12-20T12:02:26;6.30;99.90
3408;DHT22;1717;50.240;8.406;2023-12-20T12:04:53;6.40;99.90
3408;DHT22;1717;50.240;8.406;2023-12-20T12:07:20;6.40;99.90
3408;DHT22;1717;50.240;8.406;2023-12-20T12:09:47;6.50;99.90
3408;DHT22;1717;50.240;8.406;2023-12-20T12:12:15;6.60;99.90
3408;DHT22;1717;50.240;8.406;2023-12-20T12:14:42;6.60;99.90
3408;DHT22;1717;50.240;8.406;2023-12-20T12:17:14;6.60;99.90
3408;DHT22;1717;50.240;8.406;2023-12-20T12:19:41;6.50;99.90
3408;DHT22;1717;50.240;8.406;2023-12-20T12:22:09;6.60;99.90
3408;DHT22;1717;50.240;8.406;2023-12-20T12:24:39;6.70;99.90
3408;DHT22;1717;50.240;8.406;2023-12-20T12:27:06;6.60;99.90
3408;DHT22;1717;50.240;8.406;2023-12-20T12:29:34;6.60;99.90
3408;DHT22;1717;50.240;8.406;2023-12-20T12:32:01;6.80;99.90
3408;DHT22;1717;50.240;8.406;2023-12-20T12:34:29;6.70;99.90
3408;DHT22;1717;50.240;8.406;2023-12-20T12:36:56;6.60;99.90
3408;DHT22;1717;50.240;8.406;2023-12-20T12:39:24;6.70;99.90
3408;DHT22;1717;50.240;8.406;2023-12-20T12:41:51;6.60;99.90
3408;DHT22;1717;50.240;8.406;2023-12-20T12:44:18;6.60;99.90
3408;DHT22;1717;50.240;8.406;2023-12-20T12:46:45;6.60;99.90
3408;DHT22;1717;50.240;8.406;2023-12-20T12:49:12;6.60;99.90
3408;DHT22;1717;50.240;8.406;2023-12-20T12:51:41;6.60;99.90
3408;DHT22;1717;50.240;8.406;2023-12-20T12:54:08;6.70;99.90
3408;DHT22;1717;50.240;8.406;2023-12-20T12:56:35;6.60;99.90
3408;DHT22;1717;50.240;8.406;2023-12-20T12:59:03;6.60;99.90
3408;DHT22;1717;50.240;8.406;2023-12-20T13:01:31;6.70;99.90
3408;DHT22;1717;50.240;8.406;2023-12-20T13:03:58;6.70;99.90
3408;DHT22;1717;50.240;8.406;2023-12-20T13:06:26;6.70;99.90
3408;DHT22;1717;50.240;8.406;2023-12-20T13:08:55;6.80;99.90
3408;DHT22;1717;50.240;8.406;2023-12-20T13:11:22;6.70;99.90
3408;DHT22;1717;50.240;8.406;2023-12-20T13:13:49;6.70;99.90
3408;DHT22;1717;50.240;8.406;2023-12-20T13:16:16;6.60;99.90
3408;DHT22;1717;50.240;8.406;2023-12-20T13:18:43;6.70;99.90
3408;DHT22;1717;50.240;8.406;2023-12-20T13:21:10;6.60;99.90
3408;DHT22;1717;50.240;8.406;2023-12-20T13:23:37;6.50;99.90
3408;DHT22;1717;50.240;8.406;2023-12-20T13:26:05;6.40;99.90
3408;DHT22;1717;50.240;8.406;2023-12-20T13:28:32;6.40;99.90
3408;DHT22;1717;50.240;8.406;2023-12-20T13:30:59;6.40;99.90
3408;DHT22;1717;50.240;8.406;2023-12-20T13:33:26;6.40;99.90
3408;DHT22;1717;50.240;8.406;2023-12-20T13:35:53;6.30;99.90
3408;DHT22;1717;50.240;8.406;2023-12-20T13:38:21;6.50;99.90
3408;DHT22;1717;50.240;8.406;2023-12-20T13:40:48;6.50;99.90
3408;DHT22;1717;50.240;8.406;2023-12-20T13:43:16;6.40;99.90
3408;DHT22;1717;50.240;8.406;2023-12-20T13:45:46;6.50;99.90
3408;DHT22;1717;50.240;8.406;2023-12-20T13:48:13;6.50;99.90
3408;DHT22;1717;50.240;8.406;2023-12-20T13:50:40;6.40;99.90
3408;DHT22;1717;50.240;8.406;2023-12-20T13:53:08;6.40;99.90
3408;DHT22;1717;50.240;8.406;2023-12-20T13:55:35;6.50;99.90
3408;DHT22;1717;50.240;8.406;2023-12-20T13:58:02;6.50;99.90
3408;DHT22;1717;50.240;8.406;2023-12-20T14:00:30;6.50;99.90
3408;DHT22;1717;50.240;8.406;2023-12-20T14:02:57;6.50;99.90
3408;DHT22;1717;50.240;8.406;2023-12-20T14:05:24;6.40;99.90
3408;DHT22;1717;50.240;8.406;2023-12-20T14:07:52;6.40;99.90
3408;DHT22;1717;50.240;8.406;2023-12-20T14:10:19;6.30;99.90
3408;DHT22;1717;50.240;8.406;2023-12-20T14:12:46;6.40;99.90
3408;DHT22;1717;50.240;8.406;2023-12-20T14:15:13;6.40;99.90
3408;DHT22;1717;50.240;8.406;2023-12-20T14:17:41;6.40;99.90
3408;DHT22;1717;50.240;8.406;2023-12-20T14:20:09;6.30;99.90
3408;DHT22;1717;50.240;8.406;2023-12-20T14:22:38;6.30;99.90
3408;DHT22;1717;50.240;8.406;2023-12-20T14:25:10;6.30;99.90
3408;DHT22;1717;50.240;8.406;2023-12-20T14:27:37;6.30;99.90
3408;DHT22;1717;50.240;8.406;2023-12-20T14:30:05;6.30;99.90
3408;DHT22;1717;50.240;8.406;2023-12-20T14:32:34;6.30;99.90
3408;DHT22;1717;50.240;8.406;2023-12-20T14:35:04;6.30;99.90
3408;DHT22;1717;50.240;8.406;2023-12-20T14:37:32;6.30;99.90
3408;DHT22;1717;50.240;8.406;2023-12-20T14:39:58;6.30;99.90
3408;DHT22;1717;50.240;8.406;2023-12-20T14:42:25;6.30;99.90
3408;DHT22;1717;50.240;8.406;2023-12-20T14:44:53;6.20;99.90
3408;DHT22;1717;50.240;8.406;2023-12-20T14:47:20;6.30;99.90
3408;DHT22;1717;50.240;8.406;2023-12-20T14:49:47;6.30;99.90
3408;DHT22;1717;50.240;8.406;2023-12-20T14:52:17;6.20;99.90
3408;DHT22;1717;50.240;8.406;2023-12-20T14:54:44;6.20;99.90
3408;DHT22;1717;50.240;8.406;2023-12-20T14:57:11;6.30;99.90
3408;DHT22;1717;50.240;8.406;2023-12-20T14:59:38;6.30;99.90
3408;DHT22;1717;50.240;8.406;2023-12-20T15:02:06;6.20;99.90
3408;DHT22;1717;50.240;8.406;2023-12-20T15:04:33;6.20;99.90
3408;DHT22;1717;50.240;8.406;2023-12-20T15:07:00;6.20;99.90
3408;DHT22;1717;50.240;8.406;2023-12-20T15:09:29;6.10;99.90
3408;DHT22;1717;50.240;8.406;2023-12-20T15:11:56;6.30;99.90
3408;DHT22;1717;50.240;8.406;2023-12-20T15:14:23;6.20;99.90
3408;DHT22;1717;50.240;8.406;2023-12-20T15:16:50;6.10;99.90
3408;DHT22;1717;50.240;8.406;2023-12-20T15:19:17;6.10;99.90
3408;DHT22;1717;50.240;8.406;2023-12-20T15:21:43;6.10;99.90
3408;DHT22;1717;50.240;8.406;2023-12-20T15:24:10;6.20;99.90
3408;DHT22;1717;50.240;8.406;2023-12-20T15:26:42;6.20;99.90
3408;DHT22;1717;50.240;8.406;2023-12-20T15:29:09;6.10;99.90
3408;DHT22;1717;50.240;8.406;2023-12-20T15:31:42;6.00;99.90
3408;DHT22;1717;50.240;8.406;2023-12-20T15:34:08;5.90;99.90
3408;DHT22;1717;50.240;8.406;2023-12-20T15:36:36;6.10;99.90
3408;DHT22;1717;50.240;8.406;2023-12-20T15:39:03;6.00;99.90
3408;DHT22;1717;50.240;8.406;2023-12-20T15:41:30;6.00;99.90
3408;DHT22;1717;50.240;8.406;2023-12-20T15:43:58;5.90;99.90
3408;DHT22;1717;50.240;8.406;2023-12-20T15:46:25;6.00;99.90
3408;DHT22;1717;50.240;8.406;2023-12-20T15:48:52;5.80;99.90
3408;DHT22;1717;50.240;8.406;2023-12-20T15:51:21;6.00;99.90
3408;DHT22;1717;50.240;8.406;2023-12-20T15:53:48;6.00;99.90
3408;DHT22;1717;50.240;8.406;2023-12-20T15:56:16;5.90;99.90
3408;DHT22;1717;50.240;8.406;2023-12-20T15:58:43;6.00;99.90
3408;DHT22;1717;50.240;8.406;2023-12-20T16:01:12;6.00;99.90
3408;DHT22;1717;50.240;8.406;2023-12-20T16:03:39;6.00;99.90
3408;DHT22;1717;50.240;8.406;2023-12-20T16:06:06;5.90;99.90
3408;DHT22;1717;50.240;8.406;2023-12-20T16:08:33;6.10;99.90
3408;DHT22;1717;50.240;8.406;2023-12-20T16:11:01;6.00;99.90
3408;DHT22;1717;50.240;8.406;2023-12-20T16:13:28;5.90;99.90
3408;DHT22;1717;50.240;8.406;2023-12-20T16:15:55;6.00;99.90
3408;DHT22;1717;50.240;8.406;2023-12-20T16:18:23;6.00;99.90